2CUTH EGBJ-LFDJ
Flight info
| Callsign | 2CUTH |
|---|---|
| Flight time | N/A |
| Altitude | 29000 |
| Route | BADIM DCT BUCFA L607 ALHAD UN859 SOPIL DCT LMG DCT GAI DCT LOMRA |
| Aircraft | TBM9/L-SDFGRWY/S |
Departure
| Time | 2026-04-28 10:24 |
|---|---|
| Airport | Gloucestershire Airport (EGBJ) |
Arrival
| Time | N/A |
|---|---|
| Airport | Aérodrome de Pamiers - Les Pujols (LFDJ) |
| Time | Latitude | Longitude | Altitude | Speed | Heading |
|---|---|---|---|---|---|
| 2026-04-28 10:13 | 51.89273 | -2.15865 | 92 ft | 0 kts | 269° |
| 2026-04-28 10:20 | 51.89277 | -2.15873 | 92 ft | 5 kts | 335° |
| 2026-04-28 10:20 | 51.89332 | -2.15845 | 92 ft | 12 kts | 359° |
| 2026-04-28 10:21 | 51.89455 | -2.16006 | 91 ft | 22 kts | 283° |
| 2026-04-28 10:21 | 51.89446 | -2.16193 | 89 ft | 28 kts | 264° |
| 2026-04-28 10:21 | 51.89421 | -2.16544 | 89 ft | 35 kts | 264° |
| 2026-04-28 10:21 | 51.89392 | -2.16979 | 85 ft | 43 kts | 264° |
| 2026-04-28 10:22 | 51.89364 | -2.17443 | 77 ft | 29 kts | 263° |
| 2026-04-28 10:22 | 51.89356 | -2.17687 | 76 ft | 14 kts | 273° |
| 2026-04-28 10:22 | 51.89340 | -2.17734 | 70 ft | 0 kts | 80° |
| 2026-04-28 10:23 | 51.89342 | -2.17719 | 67 ft | 10 kts | 80° |
| 2026-04-28 10:23 | 51.89373 | -2.17295 | 80 ft | 68 kts | 84° |
| 2026-04-28 10:23 | 51.89452 | -2.16307 | 259 ft | 102 kts | 75° |
| 2026-04-28 10:24 | 51.89591 | -2.15253 | 960 ft | 91 kts | 71° |
| 2026-04-28 10:24 | 51.89704 | -2.14182 | 1460 ft | 102 kts | 74° |
| 2026-04-28 10:24 | 51.89695 | -2.12879 | 1731 ft | 136 kts | 105° |
| 2026-04-28 10:24 | 51.88916 | -2.11901 | 2281 ft | 155 kts | 165° |
| 2026-04-28 10:25 | 51.87877 | -2.12355 | 2896 ft | 163 kts | 219° |
| 2026-04-28 10:25 | 51.87168 | -2.13794 | 3442 ft | 164 kts | 234° |
| 2026-04-28 10:25 | 51.86505 | -2.15306 | 4055 ft | 165 kts | 234° |
| 2026-04-28 10:25 | 51.85852 | -2.16837 | 4678 ft | 166 kts | 235° |
| 2026-04-28 10:26 | 51.85191 | -2.18387 | 5268 ft | 168 kts | 235° |
| 2026-04-28 10:26 | 51.84525 | -2.19952 | 5890 ft | 169 kts | 235° |
| 2026-04-28 10:26 | 51.83864 | -2.21499 | 6488 ft | 170 kts | 235° |
| 2026-04-28 10:26 | 51.83184 | -2.23074 | 7079 ft | 172 kts | 235° |
| 2026-04-28 10:27 | 51.82588 | -2.24748 | 7617 ft | 172 kts | 252° |
| 2026-04-28 10:27 | 51.82126 | -2.26549 | 8169 ft | 176 kts | 239° |
| 2026-04-28 10:27 | 51.81300 | -2.27999 | 8741 ft | 177 kts | 219° |
| 2026-04-28 10:27 | 51.80345 | -2.29267 | 9326 ft | 179 kts | 218° |
| 2026-04-28 10:28 | 51.79388 | -2.30568 | 9894 ft | 181 kts | 219° |
| 2026-04-28 10:28 | 51.78419 | -2.31898 | 10434 ft | 184 kts | 219° |
| 2026-04-28 10:28 | 51.77435 | -2.33250 | 10953 ft | 186 kts | 219° |
| 2026-04-28 10:29 | 51.75446 | -2.35984 | 12045 ft | 190 kts | 219° |
| 2026-04-28 10:29 | 51.74438 | -2.37368 | 12601 ft | 191 kts | 220° |
| 2026-04-28 10:29 | 51.73430 | -2.38750 | 13161 ft | 193 kts | 220° |
| 2026-04-28 10:29 | 51.72400 | -2.40162 | 13763 ft | 195 kts | 220° |
| 2026-04-28 10:30 | 51.71362 | -2.41584 | 14349 ft | 197 kts | 220° |
| 2026-04-28 10:30 | 51.70311 | -2.43024 | 14866 ft | 200 kts | 220° |
| 2026-04-28 10:30 | 51.69245 | -2.44484 | 15393 ft | 202 kts | 220° |
| 2026-04-28 10:30 | 51.68168 | -2.45957 | 15927 ft | 204 kts | 220° |
| 2026-04-28 10:31 | 51.67030 | -2.47336 | 16455 ft | 206 kts | 204° |
| 2026-04-28 10:31 | 51.65671 | -2.47974 | 17017 ft | 203 kts | 180° |
| 2026-04-28 10:31 | 51.64295 | -2.47810 | 17568 ft | 196 kts | 158° |
| 2026-04-28 10:31 | 51.63085 | -2.46927 | 18100 ft | 188 kts | 136° |
| 2026-04-28 10:32 | 51.62163 | -2.45510 | 18672 ft | 179 kts | 117° |
| 2026-04-28 10:32 | 51.61493 | -2.43836 | 19182 ft | 178 kts | 113° |
| 2026-04-28 10:32 | 51.60812 | -2.42155 | 19683 ft | 180 kts | 114° |
| 2026-04-28 10:32 | 51.60137 | -2.40475 | 20190 ft | 182 kts | 113° |
| 2026-04-28 10:33 | 51.59449 | -2.38754 | 20714 ft | 183 kts | 113° |
| 2026-04-28 10:33 | 51.58756 | -2.37020 | 21228 ft | 185 kts | 113° |
| 2026-04-28 10:33 | 51.58055 | -2.35268 | 21722 ft | 189 kts | 113° |
| 2026-04-28 10:33 | 51.57313 | -2.33399 | 21944 ft | 207 kts | 114° |
| 2026-04-28 10:34 | 51.56501 | -2.31384 | 22206 ft | 221 kts | 115° |
| 2026-04-28 10:34 | 51.55642 | -2.29262 | 22494 ft | 231 kts | 115° |
| 2026-04-28 10:34 | 51.54752 | -2.27054 | 22776 ft | 240 kts | 115° |
| 2026-04-28 10:34 | 51.53831 | -2.24765 | 23066 ft | 247 kts | 115° |
| 2026-04-28 10:35 | 51.52896 | -2.22444 | 23352 ft | 253 kts | 116° |
| 2026-04-28 10:35 | 51.51931 | -2.20051 | 23640 ft | 258 kts | 116° |
| 2026-04-28 10:35 | 51.50980 | -2.17588 | 23910 ft | 259 kts | 110° |
| 2026-04-28 10:35 | 51.50349 | -2.14905 | 24135 ft | 256 kts | 98° |
| 2026-04-28 10:36 | 51.50074 | -2.12103 | 24369 ft | 254 kts | 90° |
| 2026-04-28 10:36 | 51.49883 | -2.09268 | 24608 ft | 256 kts | 91° |
| 2026-04-28 10:36 | 51.49676 | -2.06419 | 24845 ft | 258 kts | 91° |
| 2026-04-28 10:36 | 51.49471 | -2.03551 | 25091 ft | 259 kts | 91° |
| 2026-04-28 10:37 | 51.49268 | -2.00660 | 25332 ft | 261 kts | 91° |
| 2026-04-28 10:37 | 51.49066 | -1.97803 | 25574 ft | 262 kts | 91° |
| 2026-04-28 10:37 | 51.48858 | -1.94891 | 25814 ft | 263 kts | 91° |
| 2026-04-28 10:37 | 51.48649 | -1.91965 | 26065 ft | 264 kts | 91° |
| 2026-04-28 10:38 | 51.48437 | -1.89029 | 26316 ft | 265 kts | 91° |
| 2026-04-28 10:38 | 51.48225 | -1.86081 | 26567 ft | 266 kts | 91° |
| 2026-04-28 10:38 | 51.48011 | -1.83123 | 26815 ft | 267 kts | 92° |
| 2026-04-28 10:38 | 51.47796 | -1.80150 | 27078 ft | 268 kts | 92° |
| 2026-04-28 10:39 | 51.47579 | -1.77171 | 27336 ft | 269 kts | 92° |
| 2026-04-28 10:39 | 51.47360 | -1.74185 | 27598 ft | 270 kts | 92° |
| 2026-04-28 10:39 | 51.47140 | -1.71181 | 27851 ft | 272 kts | 92° |
| 2026-04-28 10:39 | 51.46920 | -1.68209 | 28117 ft | 273 kts | 93° |
| 2026-04-28 10:40 | 51.46546 | -1.65209 | 28389 ft | 276 kts | 98° |
| 2026-04-28 10:40 | 51.46131 | -1.62203 | 28658 ft | 276 kts | 97° |
| 2026-04-28 10:40 | 51.45731 | -1.59183 | 28923 ft | 278 kts | 97° |
| 2026-04-28 10:40 | 51.45320 | -1.56143 | 29203 ft | 278 kts | 98° |
| 2026-04-28 10:41 | 51.44900 | -1.53082 | 29310 ft | 285 kts | 98° |
| 2026-04-28 10:41 | 51.44468 | -1.49939 | 29313 ft | 292 kts | 98° |
| 2026-04-28 10:41 | 51.44029 | -1.46739 | 29307 ft | 296 kts | 98° |
| 2026-04-28 10:41 | 51.43588 | -1.43535 | 29311 ft | 299 kts | 98° |
| 2026-04-28 10:42 | 51.43138 | -1.40267 | 29318 ft | 301 kts | 99° |
| 2026-04-28 10:42 | 51.42225 | -1.33657 | 29313 ft | 305 kts | 99° |
| 2026-04-28 10:43 | 51.41309 | -1.27069 | 29316 ft | 308 kts | 99° |
| 2026-04-28 10:43 | 51.40029 | -1.20475 | 29322 ft | 314 kts | 113° |
| 2026-04-28 10:44 | 51.37452 | -1.14744 | 29310 ft | 323 kts | 133° |
| 2026-04-28 10:44 | 51.33761 | -1.10664 | 29308 ft | 329 kts | 153° |
| 2026-04-28 10:45 | 51.29590 | -1.07613 | 29302 ft | 329 kts | 154° |
| 2026-04-28 10:45 | 51.25422 | -1.04561 | 29296 ft | 330 kts | 154° |
| 2026-04-28 10:46 | 51.21241 | -1.01514 | 29294 ft | 330 kts | 155° |
| 2026-04-28 10:46 | 51.17053 | -0.98464 | 29284 ft | 330 kts | 155° |
| 2026-04-28 10:47 | 51.12890 | -0.95439 | 29284 ft | 331 kts | 155° |
| 2026-04-28 10:47 | 51.08690 | -0.92393 | 29284 ft | 331 kts | 156° |
| 2026-04-28 10:48 | 51.04494 | -0.89356 | 29281 ft | 331 kts | 157° |
| 2026-04-28 10:48 | 51.00298 | -0.86327 | 29279 ft | 331 kts | 157° |
| 2026-04-28 10:49 | 50.96113 | -0.83311 | 29270 ft | 330 kts | 158° |
| 2026-04-28 10:49 | 50.91971 | -0.80329 | 29270 ft | 328 kts | 158° |
| 2026-04-28 10:50 | 50.87811 | -0.77344 | 29261 ft | 328 kts | 158° |
| 2026-04-28 10:50 | 50.83798 | -0.73941 | 29265 ft | 328 kts | 149° |
| 2026-04-28 10:51 | 50.79965 | -0.70035 | 29260 ft | 327 kts | 150° |
| 2026-04-28 10:51 | 50.76138 | -0.66143 | 29257 ft | 327 kts | 150° |
| 2026-04-28 10:52 | 50.72318 | -0.62261 | 29251 ft | 326 kts | 150° |
| 2026-04-28 10:52 | 50.68500 | -0.58393 | 29253 ft | 326 kts | 151° |
| 2026-04-28 10:53 | 50.64708 | -0.54556 | 29250 ft | 326 kts | 151° |
| 2026-04-28 10:53 | 50.60895 | -0.50705 | 29255 ft | 325 kts | 152° |
| 2026-04-28 10:54 | 50.57076 | -0.46858 | 29244 ft | 325 kts | 152° |
| 2026-04-28 10:54 | 50.53258 | -0.43017 | 29246 ft | 325 kts | 152° |
| 2026-04-28 10:55 | 50.49469 | -0.39215 | 29237 ft | 325 kts | 152° |
| 2026-04-28 10:55 | 50.45653 | -0.35391 | 29233 ft | 325 kts | 153° |
| 2026-04-28 10:56 | 50.41841 | -0.31581 | 29235 ft | 325 kts | 153° |
| 2026-04-28 10:56 | 50.38028 | -0.27776 | 29239 ft | 324 kts | 153° |
| 2026-04-28 10:57 | 50.34238 | -0.24001 | 29230 ft | 324 kts | 153° |
| 2026-04-28 10:57 | 50.30424 | -0.20209 | 29231 ft | 324 kts | 153° |
| 2026-04-28 10:58 | 50.26609 | -0.16425 | 29226 ft | 324 kts | 154° |
| 2026-04-28 10:58 | 50.22802 | -0.12654 | 29229 ft | 323 kts | 154° |
| 2026-04-28 10:59 | 50.19002 | -0.08899 | 29220 ft | 323 kts | 154° |
| 2026-04-28 10:59 | 50.15223 | -0.05170 | 29218 ft | 323 kts | 154° |
| 2026-04-28 11:00 | 50.11415 | -0.01437 | 29224 ft | 322 kts | 156° |
| 2026-04-28 11:00 | 50.07330 | 0.01030 | 29230 ft | 311 kts | 173° |
| 2026-04-28 11:01 | 50.03152 | 0.02677 | 29224 ft | 311 kts | 172° |
| 2026-04-28 11:01 | 49.98953 | 0.04335 | 29210 ft | 311 kts | 173° |
| 2026-04-28 11:02 | 49.94760 | 0.05981 | 29206 ft | 310 kts | 173° |
| 2026-04-28 11:02 | 49.90577 | 0.07625 | 29202 ft | 309 kts | 173° |
| 2026-04-28 11:03 | 49.86402 | 0.09260 | 29195 ft | 309 kts | 173° |
| 2026-04-28 11:03 | 49.82260 | 0.10882 | 29192 ft | 308 kts | 173° |
| 2026-04-28 11:04 | 49.78101 | 0.12505 | 29188 ft | 308 kts | 173° |
| 2026-04-28 11:04 | 49.73950 | 0.14127 | 29185 ft | 306 kts | 173° |
| 2026-04-28 11:05 | 49.69809 | 0.15732 | 29179 ft | 307 kts | 173° |
| 2026-04-28 11:05 | 49.65690 | 0.17361 | 29193 ft | 308 kts | 172° |
| 2026-04-28 11:06 | 49.61546 | 0.19054 | 29187 ft | 308 kts | 172° |
| 2026-04-28 11:06 | 49.57390 | 0.20718 | 29190 ft | 308 kts | 172° |
| 2026-04-28 11:07 | 49.53235 | 0.22390 | 29186 ft | 308 kts | 172° |
| 2026-04-28 11:07 | 49.49079 | 0.24057 | 29193 ft | 309 kts | 172° |
| 2026-04-28 11:08 | 49.44908 | 0.25727 | 29160 ft | 310 kts | 172° |
| 2026-04-28 11:08 | 49.40760 | 0.27386 | 29163 ft | 310 kts | 171° |
| 2026-04-28 11:09 | 49.36588 | 0.29051 | 29157 ft | 310 kts | 171° |
| 2026-04-28 11:09 | 49.32409 | 0.30714 | 29162 ft | 310 kts | 171° |
| 2026-04-28 11:10 | 49.28260 | 0.32415 | 29157 ft | 311 kts | 170° |
| 2026-04-28 11:10 | 49.24099 | 0.34199 | 29162 ft | 310 kts | 171° |
| 2026-04-28 11:11 | 49.20632 | 0.35649 | 29156 ft | 310 kts | 171° |
| 2026-04-28 11:11 | 49.16467 | 0.37405 | 29159 ft | 310 kts | 171° |
| 2026-04-28 11:12 | 49.12311 | 0.39148 | 29145 ft | 309 kts | 171° |
| 2026-04-28 11:12 | 49.08160 | 0.40889 | 29148 ft | 309 kts | 171° |
| 2026-04-28 11:13 | 49.04034 | 0.42616 | 29137 ft | 309 kts | 171° |
| 2026-04-28 11:13 | 48.99888 | 0.44347 | 29140 ft | 309 kts | 171° |
| 2026-04-28 11:14 | 48.95745 | 0.46075 | 29131 ft | 308 kts | 171° |
| 2026-04-28 11:14 | 48.91606 | 0.47798 | 29129 ft | 308 kts | 171° |
| 2026-04-28 11:15 | 48.87467 | 0.49518 | 29122 ft | 308 kts | 171° |
| 2026-04-28 11:15 | 48.83330 | 0.51235 | 29124 ft | 307 kts | 171° |
| 2026-04-28 11:16 | 48.79227 | 0.52933 | 29117 ft | 307 kts | 171° |
| 2026-04-28 11:16 | 48.75091 | 0.54568 | 29121 ft | 306 kts | 173° |
| 2026-04-28 11:17 | 48.70957 | 0.56181 | 29109 ft | 306 kts | 172° |
| 2026-04-28 11:17 | 48.66821 | 0.57808 | 29114 ft | 306 kts | 172° |
| 2026-04-28 11:18 | 48.62717 | 0.59410 | 29105 ft | 306 kts | 172° |
| 2026-04-28 11:18 | 48.58587 | 0.61023 | 29108 ft | 306 kts | 172° |
| 2026-04-28 11:19 | 48.54464 | 0.62629 | 29097 ft | 306 kts | 172° |
| 2026-04-28 11:19 | 48.50338 | 0.64251 | 29097 ft | 306 kts | 172° |
| 2026-04-28 11:20 | 48.46251 | 0.65940 | 29094 ft | 306 kts | 172° |
| 2026-04-28 11:20 | 48.42132 | 0.67607 | 29092 ft | 306 kts | 172° |
| 2026-04-28 11:21 | 48.38024 | 0.69276 | 29086 ft | 306 kts | 172° |
| 2026-04-28 11:21 | 48.33902 | 0.70944 | 29084 ft | 306 kts | 172° |
| 2026-04-28 11:22 | 48.29791 | 0.72608 | 29074 ft | 306 kts | 172° |
| 2026-04-28 11:22 | 48.25686 | 0.74265 | 29081 ft | 305 kts | 172° |
| 2026-04-28 11:23 | 48.21604 | 0.75882 | 29074 ft | 305 kts | 173° |
| 2026-04-28 11:23 | 48.17481 | 0.77503 | 29079 ft | 305 kts | 173° |
| 2026-04-28 11:24 | 48.13368 | 0.79119 | 29069 ft | 305 kts | 173° |
| 2026-04-28 11:24 | 48.09283 | 0.80723 | 29069 ft | 305 kts | 173° |
| 2026-04-28 11:25 | 48.05165 | 0.82338 | 29066 ft | 305 kts | 173° |
| 2026-04-28 11:25 | 48.01055 | 0.83944 | 29070 ft | 305 kts | 173° |
| 2026-04-28 11:26 | 47.96942 | 0.85553 | 29061 ft | 305 kts | 173° |
| 2026-04-28 11:26 | 47.92860 | 0.87141 | 29063 ft | 305 kts | 173° |
| 2026-04-28 11:27 | 47.88748 | 0.88747 | 29057 ft | 305 kts | 173° |
| 2026-04-28 11:27 | 47.84641 | 0.90338 | 29061 ft | 305 kts | 173° |
| 2026-04-28 11:28 | 47.80530 | 0.91936 | 29055 ft | 306 kts | 173° |
| 2026-04-28 11:28 | 47.76438 | 0.93520 | 29056 ft | 306 kts | 173° |
| 2026-04-28 11:29 | 47.72315 | 0.95114 | 29052 ft | 306 kts | 173° |
| 2026-04-28 11:29 | 47.68194 | 0.96706 | 29061 ft | 306 kts | 173° |
| 2026-04-28 11:30 | 47.64069 | 0.98296 | 29055 ft | 306 kts | 173° |
| 2026-04-28 11:30 | 47.57904 | 1.00668 | 29060 ft | 306 kts | 173° |
| 2026-04-28 11:31 | 47.53776 | 1.02252 | 29056 ft | 306 kts | 173° |
| 2026-04-28 11:31 | 47.49645 | 1.03836 | 29059 ft | 306 kts | 174° |
| 2026-04-28 11:32 | 47.45549 | 1.05403 | 29057 ft | 305 kts | 174° |
| 2026-04-28 11:32 | 47.41412 | 1.06372 | 29071 ft | 296 kts | 186° |
| 2026-04-28 11:33 | 47.39359 | 1.06324 | 29065 ft | 294 kts | 188° |
| 2026-04-28 11:33 | 47.37311 | 1.06281 | 29062 ft | 295 kts | 188° |
| 2026-04-28 11:33 | 47.35263 | 1.06245 | 29070 ft | 294 kts | 188° |
| 2026-04-28 11:33 | 47.33208 | 1.06197 | 29064 ft | 294 kts | 188° |
| 2026-04-28 11:34 | 47.31156 | 1.06143 | 29058 ft | 294 kts | 188° |
| 2026-04-28 11:34 | 47.29136 | 1.06094 | 29054 ft | 294 kts | 188° |
| 2026-04-28 11:34 | 47.27084 | 1.06050 | 29061 ft | 294 kts | 188° |
| 2026-04-28 11:34 | 47.25037 | 1.06002 | 29058 ft | 294 kts | 188° |
| 2026-04-28 11:35 | 47.22991 | 1.05953 | 29047 ft | 294 kts | 188° |
| 2026-04-28 11:35 | 47.20944 | 1.05904 | 29043 ft | 294 kts | 188° |
| 2026-04-28 11:35 | 47.18894 | 1.05857 | 29045 ft | 294 kts | 188° |
| 2026-04-28 11:35 | 47.16850 | 1.05808 | 29039 ft | 294 kts | 188° |
| 2026-04-28 11:36 | 47.14806 | 1.05762 | 29034 ft | 293 kts | 188° |
| 2026-04-28 11:36 | 47.12766 | 1.05714 | 29037 ft | 293 kts | 188° |
| 2026-04-28 11:36 | 47.10723 | 1.05666 | 29039 ft | 293 kts | 189° |
| 2026-04-28 11:36 | 47.08678 | 1.05618 | 29032 ft | 293 kts | 189° |
| 2026-04-28 11:37 | 47.06638 | 1.05571 | 29029 ft | 293 kts | 189° |
| 2026-04-28 11:37 | 47.04623 | 1.05523 | 29033 ft | 293 kts | 188° |
| 2026-04-28 11:37 | 47.02584 | 1.05477 | 29033 ft | 293 kts | 189° |
| 2026-04-28 11:37 | 47.00544 | 1.05428 | 29030 ft | 293 kts | 189° |
| 2026-04-28 11:38 | 46.98504 | 1.05375 | 29028 ft | 293 kts | 189° |
| 2026-04-28 11:38 | 46.96467 | 1.05325 | 29216 ft | 288 kts | 192° |
| 2026-04-28 11:38 | 46.94472 | 1.05278 | 29071 ft | 287 kts | 192° |
| 2026-04-28 11:38 | 46.92478 | 1.05228 | 29034 ft | 286 kts | 191° |
| 2026-04-28 11:39 | 46.90491 | 1.05175 | 29030 ft | 285 kts | 192° |
| 2026-04-28 11:39 | 46.88511 | 1.05126 | 29024 ft | 284 kts | 192° |
| 2026-04-28 11:39 | 46.86534 | 1.05078 | 29023 ft | 284 kts | 192° |
| 2026-04-28 11:39 | 46.84556 | 1.05030 | 29024 ft | 283 kts | 192° |
| 2026-04-28 11:40 | 46.82586 | 1.04982 | 29022 ft | 283 kts | 192° |
| 2026-04-28 11:40 | 46.80620 | 1.04932 | 29020 ft | 283 kts | 192° |
| 2026-04-28 11:40 | 46.78680 | 1.04884 | 29021 ft | 282 kts | 192° |
| 2026-04-28 11:40 | 46.76713 | 1.04836 | 29016 ft | 282 kts | 192° |
| 2026-04-28 11:41 | 46.74744 | 1.04788 | 29015 ft | 282 kts | 192° |
| 2026-04-28 11:41 | 46.72778 | 1.04740 | 29018 ft | 282 kts | 191° |
| 2026-04-28 11:41 | 46.70810 | 1.04691 | 29015 ft | 282 kts | 191° |
| 2026-04-28 11:41 | 46.68845 | 1.04642 | 29015 ft | 282 kts | 192° |
| 2026-04-28 11:42 | 46.66878 | 1.04593 | 29018 ft | 282 kts | 191° |
| 2026-04-28 11:42 | 46.64911 | 1.04546 | 29015 ft | 283 kts | 191° |
| 2026-04-28 11:42 | 46.62969 | 1.04499 | 29015 ft | 283 kts | 191° |
| 2026-04-28 11:42 | 46.61000 | 1.04451 | 29014 ft | 283 kts | 191° |
| 2026-04-28 11:43 | 46.59034 | 1.04401 | 29014 ft | 283 kts | 191° |
| 2026-04-28 11:43 | 46.57061 | 1.04353 | 29014 ft | 283 kts | 191° |
| 2026-04-28 11:43 | 46.55088 | 1.04307 | 29018 ft | 283 kts | 191° |
| 2026-04-28 11:43 | 46.53119 | 1.04259 | 29017 ft | 283 kts | 191° |
| 2026-04-28 11:44 | 46.51146 | 1.04210 | 29016 ft | 283 kts | 191° |
| 2026-04-28 11:44 | 46.49173 | 1.04162 | 29009 ft | 284 kts | 191° |
| 2026-04-28 11:44 | 46.47198 | 1.04113 | 29014 ft | 284 kts | 191° |
| 2026-04-28 11:44 | 46.45247 | 1.04066 | 29007 ft | 284 kts | 191° |
| 2026-04-28 11:45 | 46.43270 | 1.04018 | 29012 ft | 284 kts | 191° |
| 2026-04-28 11:45 | 46.41288 | 1.03970 | 29011 ft | 284 kts | 191° |
| 2026-04-28 11:45 | 46.39306 | 1.03922 | 29015 ft | 284 kts | 191° |
| 2026-04-28 11:45 | 46.37325 | 1.03874 | 29018 ft | 284 kts | 191° |
| 2026-04-28 11:46 | 46.35339 | 1.03826 | 29012 ft | 284 kts | 191° |
| 2026-04-28 11:46 | 46.33386 | 1.03777 | 29009 ft | 285 kts | 191° |
| 2026-04-28 11:46 | 46.31402 | 1.03730 | 29010 ft | 285 kts | 191° |
| 2026-04-28 11:46 | 46.29419 | 1.03682 | 29009 ft | 285 kts | 191° |
| 2026-04-28 11:47 | 46.27431 | 1.03634 | 29012 ft | 285 kts | 191° |
| 2026-04-28 11:47 | 46.25444 | 1.03585 | 29009 ft | 286 kts | 191° |
| 2026-04-28 11:47 | 46.23456 | 1.03537 | 29004 ft | 286 kts | 191° |
| 2026-04-28 11:47 | 46.21467 | 1.03490 | 29002 ft | 286 kts | 191° |
| 2026-04-28 11:48 | 46.19472 | 1.03442 | 29001 ft | 286 kts | 191° |
| 2026-04-28 11:48 | 46.17483 | 1.03394 | 29004 ft | 286 kts | 191° |
| 2026-04-28 11:48 | 46.15487 | 1.03345 | 29007 ft | 286 kts | 191° |
| 2026-04-28 11:48 | 46.13489 | 1.03297 | 29001 ft | 287 kts | 190° |
| 2026-04-28 11:49 | 46.11492 | 1.03249 | 29004 ft | 287 kts | 191° |
| 2026-04-28 11:49 | 46.09514 | 1.03202 | 29008 ft | 287 kts | 190° |
| 2026-04-28 11:49 | 46.07507 | 1.03155 | 29005 ft | 287 kts | 190° |
| 2026-04-28 11:49 | 46.05507 | 1.03106 | 29009 ft | 287 kts | 191° |
| 2026-04-28 11:50 | 46.03507 | 1.03058 | 29009 ft | 287 kts | 191° |
| 2026-04-28 11:50 | 46.01502 | 1.03010 | 29006 ft | 288 kts | 190° |
| 2026-04-28 11:50 | 45.99521 | 1.02962 | 29011 ft | 289 kts | 190° |
| 2026-04-28 11:50 | 45.97511 | 1.02914 | 29008 ft | 289 kts | 190° |
| 2026-04-28 11:51 | 45.95498 | 1.02866 | 29013 ft | 289 kts | 190° |